Time;durP1;ratioP1;P1;durP2;ratioP2;P2;SDS_P1;SDS_P2;PMS_P1;PMS_P2;Temp;Humidity;BMP_temperature;BMP_pressure;BME280_temperature;BME280_humidity;BME280_pressure;Samples;Min_cycle;Max_cycle;Signal;HPM_P1;HPM_P2
2024/01/21 00:00:44;;;;;;;66.80;21.20;;;;;;;5.85;55.42;100383.04;108121;1252;72539;-65
2024/01/21 00:03:12;;;;;;;55.10;19.00;;;;;;;5.94;55.17;100381.19;108066;1258;60432;-68
2024/01/21 00:05:39;;;;;;;57.70;22.70;;;;;;;5.89;55.50;100379.67;108207;1251;60309;-67
2024/01/21 00:08:07;;;;;;;54.30;22.00;;;;;;;6.08;55.03;100376.31;107947;1251;73924;-67
2024/01/21 00:10:34;;;;;;;51.10;21.20;;;;;;;6.03;55.10;100377.79;108148;1251;69148;-67
2024/01/21 00:13:03;;;;;;;58.80;22.80;;;;;;;5.91;55.51;100375.98;108203;1253;71353;-66
2024/01/21 00:15:30;;;;;;;53.60;20.10;;;;;;;5.94;55.71;100381.73;108129;1251;60526;-66
2024/01/21 00:17:58;;;;;;;57.50;21.50;;;;;;;5.95;55.68;100381.36;108165;1251;60339;-66
2024/01/21 00:20:30;;;;;;;57.30;21.90;;;;;;;5.99;55.66;100386.17;108099;1251;71781;-67
2024/01/21 00:22:58;;;;;;;55.30;21.80;;;;;;;6.14;55.21;100385.98;108151;1251;69183;-67
2024/01/21 00:25:25;;;;;;;60.40;20.50;;;;;;;6.09;55.45;100390.92;108112;1251;72473;-67
2024/01/21 00:27:53;;;;;;;56.30;20.40;;;;;;;6.03;55.52;100386.65;108058;1256;60828;-67
2024/01/21 00:30:21;;;;;;;47.20;18.50;;;;;;;6.26;54.92;100387.36;108339;1251;60588;-67
2024/01/21 00:32:49;;;;;;;45.60;18.60;;;;;;;6.30;54.88;100384.16;108234;1251;73938;-65
2024/01/21 00:35:16;;;;;;;50.60;19.10;;;;;;;6.37;54.85;100380.40;108176;1251;68851;-66
2024/01/21 00:37:44;;;;;;;43.10;18.30;;;;;;;6.28;54.91;100381.59;108169;1251;72710;-66
2024/01/21 00:40:12;;;;;;;44.10;18.40;;;;;;;6.39;55.05;100383.34;108162;1251;60430;-67
2024/01/21 00:42:39;;;;;;;38.60;16.90;;;;;;;6.58;54.55;100381.11;108175;1251;60326;-65
2024/01/21 00:45:07;;;;;;;42.80;17.00;;;;;;;6.55;54.38;100384.82;108163;1251;73716;-66
2024/01/21 00:47:35;;;;;;;40.60;16.40;;;;;;;6.62;54.40;100383.48;108145;1251;68945;-66
2024/01/21 00:50:03;;;;;;;34.50;16.00;;;;;;;6.63;54.11;100380.85;108176;1253;71722;-65
2024/01/21 00:52:31;;;;;;;40.60;15.30;;;;;;;6.65;54.11;100384.83;108282;1251;60839;-66
2024/01/21 00:54:59;;;;;;;33.50;15.50;;;;;;;6.66;54.27;100389.16;108259;1251;60339;-67
2024/01/21 00:57:26;;;;;;;35.90;16.10;;;;;;;6.72;53.87;100386.80;108092;1251;73788;-66
2024/01/21 00:59:54;;;;;;;37.10;16.30;;;;;;;6.76;53.91;100387.77;108158;1251;70521;-66
2024/01/21 01:02:21;;;;;;;31.90;14.50;;;;;;;6.80;53.85;100388.23;108105;1257;71351;-66
2024/01/21 01:04:49;;;;;;;33.30;14.20;;;;;;;6.80;53.93;100389.29;108202;1251;60875;-67
2024/01/21 01:07:17;;;;;;;28.20;13.70;;;;;;;6.84;53.88;100388.17;108106;1251;60332;-64
2024/01/21 01:09:44;;;;;;;30.20;14.60;;;;;;;6.77;54.18;100389.67;108101;1251;73916;-67
2024/01/21 01:12:13;;;;;;;32.70;14.50;;;;;;;6.86;53.91;100394.94;108094;1251;68750;-67
2024/01/21 01:14:41;;;;;;;30.10;14.10;;;;;;;6.79;54.15;100388.42;108131;1253;72699;-67
2024/01/21 01:17:08;;;;;;;25.90;13.50;;;;;;;6.67;54.39;100390.55;108163;1253;60257;-67
2024/01/21 01:19:36;;;;;;;30.80;14.10;;;;;;;6.88;54.01;100391.58;108055;1251;60427;-66
2024/01/21 01:22:04;;;;;;;25.40;13.60;;;;;;;6.96;53.66;100387.77;108096;1251;71935;-66
2024/01/21 01:24:32;;;;;;;33.30;13.50;;;;;;;6.96;53.76;100388.13;108223;1251;69929;-66
2024/01/21 01:26:59;;;;;;;26.20;13.50;;;;;;;6.96;53.74;100390.58;108126;1253;72653;-67
2024/01/21 01:29:27;;;;;;;25.70;13.60;;;;;;;6.82;54.22;100391.17;108050;1251;60862;-66
2024/01/21 01:31:54;;;;;;;24.80;13.00;;;;;;;6.96;53.99;100390.40;108206;1251;60345;-66
2024/01/21 01:34:22;;;;;;;26.10;13.00;;;;;;;6.98;53.99;100391.40;108049;1251;73504;-64
2024/01/21 01:36:50;;;;;;;27.60;13.40;;;;;;;6.85;54.15;100393.91;108271;1251;72743;-67
2024/01/21 01:39:18;;;;;;;24.30;13.10;;;;;;;6.86;54.48;100395.98;108131;1251;72259;-66
2024/01/21 01:41:45;;;;;;;26.40;12.30;;;;;;;7.00;54.07;100388.41;108076;1253;59798;-67
2024/01/21 01:44:13;;;;;;;26.80;13.50;;;;;;;6.74;54.58;100389.55;108005;1251;157822;-66
2024/01/21 01:48:38;;;;;;;28.10;13.80;;;;;;;4.81;60.58;100395.42;104923;1289;601743;-67
2024/01/21 01:51:05;;;;;;;28.50;13.40;;;;;;;5.93;57.35;100394.61;107192;1267;59497;-66
2024/01/21 01:53:33;;;;;;;25.90;13.40;;;;;;;6.10;56.85;100394.75;107236;1271;59957;-66
2024/01/21 01:56:02;;;;;;;25.90;14.00;;;;;;;5.91;57.24;100394.83;107983;1254;72263;-68
2024/01/21 01:58:29;;;;;;;24.40;13.50;;;;;;;5.95;57.17;100399.33;108080;1254;70496;-67
2024/01/21 02:00:57;;;;;;;28.30;14.70;;;;;;;5.98;56.91;100398.05;107970;1260;71440;-67
2024/01/21 02:03:25;;;;;;;28.40;15.40;;;;;;;6.22;56.37;100403.12;108068;1251;110432;-66
2024/01/21 02:05:53;;;;;;;32.80;15.30;;;;;;;6.31;56.00;100405.77;108182;1251;59109;-67
2024/01/21 02:08:21;;;;;;;26.00;14.70;;;;;;;6.26;55.85;100408.98;108158;1257;71244;-66
2024/01/21 02:10:48;;;;;;;31.90;14.60;;;;;;;6.32;55.56;100411.52;108193;1250;69273;-67
2024/01/21 02:13:16;;;;;;;28.90;15.30;;;;;;;6.36;55.39;100416.86;108261;1251;73229;-65
2024/01/21 02:15:43;;;;;;;30.70;15.60;;;;;;;6.45;55.14;100419.86;108212;1251;60891;-67
2024/01/21 02:18:11;;;;;;;30.20;14.00;;;;;;;6.37;55.25;100422.60;108270;1251;59690;-65
2024/01/21 02:20:39;;;;;;;35.30;16.10;;;;;;;6.36;55.34;100427.14;108235;1251;71831;-66
2024/01/21 02:23:10;;;;;;;28.50;15.00;;;;;;;6.29;55.44;100429.35;108298;1256;68230;-68
2024/01/21 02:25:37;;;;;;;;;;;;;;;6.31;55.51;100433.52;108240;1251;70775;-66
2024/01/21 02:28:05;;;;;;;29.60;15.90;;;;;;;6.41;55.22;100434.91;108233;1251;60916;-66
2024/01/21 02:30:36;;;;;;;28.00;14.60;;;;;;;6.47;55.15;100440.58;108272;1251;60013;-66
2024/01/21 02:33:04;;;;;;;29.50;15.20;;;;;;;6.44;55.18;100443.41;108258;1254;70924;-64
2024/01/21 02:35:32;;;;;;;32.60;16.60;;;;;;;6.51;55.16;100446.27;108225;1251;67944;-68
2024/01/21 02:38:00;;;;;;;29.50;15.40;;;;;;;6.47;55.26;100448.96;108330;1251;72525;-65
2024/01/21 02:40:28;;;;;;;30.70;16.10;;;;;;;6.34;55.54;100453.68;108188;1251;60820;-67
2024/01/21 02:42:55;;;;;;;33.10;16.60;;;;;;;6.34;55.53;100456.99;108068;1251;59710;-67
2024/01/21 02:45:23;;;;;;;31.20;15.20;;;;;;;6.38;55.60;100456.41;108205;1251;71822;-67
2024/01/21 02:47:50;;;;;;;38.50;17.00;;;;;;;6.47;55.36;100461.88;108051;1259;69551;-66
2024/01/21 02:50:18;;;;;;;35.60;17.80;;;;;;;6.34;55.78;100458.22;108201;1251;72766;-66
2024/01/21 02:52:45;;;;;;;28.90;16.20;;;;;;;6.54;55.41;100462.82;108322;1250;60852;-67
2024/01/21 02:55:13;;;;;;;32.60;17.10;;;;;;;6.65;55.22;100462.98;108314;1251;59964;-66
2024/01/21 02:57:40;;;;;;;34.80;16.40;;;;;;;6.64;55.29;100464.94;108277;1251;73042;-66
2024/01/21 03:00:09;;;;;;;33.20;17.40;;;;;;;6.64;55.46;100468.94;108231;1251;69283;-66
2024/01/21 03:02:37;;;;;;;34.30;16.30;;;;;;;6.69;55.30;100467.81;108141;1251;72600;-66
2024/01/21 03:05:05;;;;;;;28.20;16.30;;;;;;;6.78;55.08;100466.28;108179;1253;59697;-67
2024/01/21 03:07:33;;;;;;;32.10;16.50;;;;;;;6.71;55.11;100471.27;108281;1251;60727;-67
2024/01/21 03:10:00;;;;;;;32.50;16.10;;;;;;;6.63;55.34;100471.41;108193;1251;71749;-62
2024/01/21 03:12:28;;;;;;;42.80;18.40;;;;;;;6.63;55.20;100468.61;108315;1251;70055;-67
2024/01/21 03:14:55;;;;;;;31.40;16.10;;;;;;;6.65;55.29;100475.55;108243;1251;72911;-66
2024/01/21 03:17:23;;;;;;;33.50;17.20;;;;;;;6.72;55.02;100474.57;108233;1251;59573;-65
2024/01/21 03:19:50;;;;;;;31.50;17.60;;;;;;;6.86;54.85;100473.65;108303;1251;59245;-66
2024/01/21 03:22:18;;;;;;;27.60;15.70;;;;;;;6.84;54.64;100479.10;108185;1251;71880;-65
2024/01/21 03:24:45;;;;;;;32.40;17.70;;;;;;;6.86;54.72;100483.94;108294;1251;70256;-65
2024/01/21 03:27:14;;;;;;;34.40;17.40;;;;;;;6.99;54.42;100488.98;108273;1251;72059;-66
2024/01/21 03:29:42;;;;;;;28.80;15.30;;;;;;;7.00;54.37;100496.65;108300;1251;59641;-65
2024/01/21 03:32:09;;;;;;;31.50;17.30;;;;;;;7.03;54.27;100498.17;108327;1251;62211;-67
2024/01/21 03:34:41;;;;;;;30.40;15.30;;;;;;;6.96;54.36;100499.84;108209;1251;70950;-67
2024/01/21 03:37:09;;;;;;;32.20;17.50;;;;;;;6.89;54.51;100505.02;108299;1251;68766;-64
2024/01/21 03:39:37;;;;;;;31.40;17.60;;;;;;;6.95;54.32;100508.25;108404;1252;72722;-66
2024/01/21 03:42:04;;;;;;;34.40;18.50;;;;;;;7.04;54.27;100508.63;108193;1251;60930;-66
2024/01/21 03:44:32;;;;;;;50.40;27.00;;;;;;;7.11;54.08;100509.57;108143;1251;59399;-65
2024/01/21 03:47:00;;;;;;;54.90;29.10;;;;;;;7.03;54.25;100516.66;108236;1251;73052;-65
2024/01/21 03:49:28;;;;;;;50.90;26.30;;;;;;;7.03;54.07;100517.55;108321;1256;69942;-63
2024/01/21 03:51:56;;;;;;;46.10;25.20;;;;;;;7.09;54.00;100521.45;108310;1254;71361;-64
2024/01/21 03:54:24;;;;;;;38.60;21.00;;;;;;;6.81;54.81;100521.89;108244;1251;60817;-66
2024/01/21 03:56:52;;;;;;;40.70;20.40;;;;;;;6.74;55.22;100527.24;108214;1256;59494;-66
2024/01/21 03:59:19;;;;;;;37.20;20.40;;;;;;;6.86;54.81;100528.11;108227;1251;73969;-67
2024/01/21 04:01:47;;;;;;;37.40;20.10;;;;;;;6.91;54.75;100531.86;108223;1256;70153;-67
2024/01/21 04:04:14;;;;;;;42.90;19.50;;;;;;;6.98;54.72;100537.35;108395;1251;71318;-66
2024/01/21 04:06:42;;;;;;;41.20;20.50;;;;;;;6.85;54.92;100540.68;108232;1254;61087;-67
2024/01/21 04:09:10;;;;;;;38.90;20.10;;;;;;;6.82;55.10;100539.16;108184;1251;59891;-67
2024/01/21 04:11:41;;;;;;;41.00;21.70;;;;;;;6.97;54.81;100543.48;108254;1251;72000;-68
2024/01/21 04:14:08;;;;;;;;;;;;;;;6.99;54.67;100544.65;108306;1251;70018;-67
2024/01/21 04:16:36;;;;;;;43.30;21.00;;;;;;;7.08;54.56;100550.63;108147;1256;72709;-65
2024/01/21 04:19:03;;;;;;;42.00;20.40;;;;;;;7.13;54.40;100553.86;108223;1251;59630;-67
2024/01/21 04:21:32;;;;;;;34.90;18.60;;;;;;;7.19;54.49;100557.97;108270;1251;59590;-65
2024/01/21 04:24:02;;;;;;;39.70;20.20;;;;;;;7.16;54.52;100562.73;108317;1251;71230;-65
2024/01/21 04:26:31;;;;;;;36.30;19.00;;;;;;;7.20;54.45;100566.52;108316;1251;69267;-64
2024/01/21 04:28:58;;;;;;;33.50;19.20;;;;;;;7.22;54.43;100570.67;108272;1251;71409;-67
2024/01/21 04:31:26;;;;;;;36.00;19.90;;;;;;;7.22;54.39;100573.81;108390;1253;60935;-67
2024/01/21 04:33:53;;;;;;;34.20;18.60;;;;;;;7.24;54.23;100574.14;108354;1251;60022;-67
2024/01/21 04:36:22;;;;;;;35.80;20.00;;;;;;;7.31;54.16;100579.23;108224;1251;71191;-67
2024/01/21 04:38:50;;;;;;;37.30;18.70;;;;;;;7.29;53.96;100582.77;108214;1251;69049;-65
2024/01/21 04:41:18;;;;;;;37.20;19.40;;;;;;;7.00;54.55;100588.13;108249;1254;70388;-66
2024/01/21 04:43:45;;;;;;;37.40;19.50;;;;;;;6.97;54.65;100593.74;108317;1254;60826;-66
2024/01/21 04:46:13;;;;;;;37.00;18.70;;;;;;;7.22;54.06;100591.96;108271;1251;59599;-65
2024/01/21 04:48:40;;;;;;;39.20;19.40;;;;;;;7.28;53.62;100599.73;108209;1251;73052;-66
2024/01/21 04:51:08;;;;;;;38.10;18.20;;;;;;;7.09;54.02;100600.21;108217;1254;68434;-66
2024/01/21 04:53:37;;;;;;;35.50;18.90;;;;;;;7.10;53.89;100606.83;108357;1251;71508;-66
2024/01/21 04:56:06;;;;;;;34.80;18.40;;;;;;;6.98;54.06;100611.54;108282;1251;59723;-65
2024/01/21 04:58:33;;;;;;;33.90;18.20;;;;;;;7.01;54.01;100615.88;108352;1251;60164;-67
2024/01/21 05:01:01;;;;;;;36.70;18.50;;;;;;;6.94;54.27;100618.58;108323;1251;73097;-66
2024/01/21 05:03:28;;;;;;;37.10;18.90;;;;;;;7.03;54.08;100621.76;108204;1251;68732;-67
2024/01/21 05:05:57;;;;;;;35.40;17.60;;;;;;;7.05;54.13;100628.20;108228;1251;75202;-67
2024/01/21 05:08:24;;;;;;;36.80;18.40;;;;;;;6.95;54.41;100634.09;108213;1251;60984;-66
2024/01/21 05:10:52;;;;;;;35.40;18.20;;;;;;;6.97;54.48;100636.88;108325;1251;59711;-66
2024/01/21 05:13:20;;;;;;;31.60;17.20;;;;;;;7.13;54.22;100644.49;108125;1251;72183;-66
2024/01/21 05:15:47;;;;;;;32.30;17.90;;;;;;;7.17;54.10;100647.23;108261;1251;70555;-67
2024/01/21 05:18:15;;;;;;;30.40;17.20;;;;;;;7.12;54.24;100650.27;108285;1254;70942;-67
2024/01/21 05:20:43;;;;;;;29.20;15.70;;;;;;;7.23;53.95;100650.64;108149;1252;59973;-67
2024/01/21 05:23:10;;;;;;;29.80;16.70;;;;;;;7.26;53.61;100656.70;108211;1251;59530;-66
2024/01/21 05:25:38;;;;;;;27.80;15.50;;;;;;;7.26;53.59;100658.63;108181;1251;73005;-65
2024/01/21 05:28:05;;;;;;;30.80;16.60;;;;;;;7.31;53.59;100666.23;108439;1251;69008;-67
2024/01/21 05:30:33;;;;;;;29.00;16.20;;;;;;;7.38;53.54;100673.98;108097;1257;72697;-66
2024/01/21 05:33:00;;;;;;;26.80;15.90;;;;;;;7.42;53.39;100674.64;108145;1254;59884;-66
2024/01/21 05:35:28;;;;;;;26.00;16.20;;;;;;;7.35;53.46;100677.36;108243;1251;59481;-65
2024/01/21 05:37:55;;;;;;;34.20;16.90;;;;;;;7.37;53.25;100684.31;108191;1251;73092;-67
2024/01/21 05:40:23;;;;;;;32.70;17.00;;;;;;;7.38;53.32;100690.60;108229;1251;70611;-67
2024/01/21 05:42:51;;;;;;;28.90;17.10;;;;;;;7.36;53.49;100698.30;108182;1251;73111;-65
2024/01/21 05:45:19;;;;;;;29.40;16.40;;;;;;;7.46;53.24;100702.34;108265;1251;60461;-66
2024/01/21 05:47:46;;;;;;;26.20;16.10;;;;;;;7.52;53.19;100708.55;108222;1251;59532;-66
2024/01/21 05:50:15;;;;;;;24.30;15.40;;;;;;;7.46;53.18;100711.95;108211;1251;72077;-66
2024/01/21 05:52:42;;;;;;;30.40;16.00;;;;;;;7.41;53.42;100718.15;108279;1251;69122;-66
2024/01/21 05:55:10;;;;;;;34.10;15.90;;;;;;;7.43;53.26;100722.48;108313;1251;72685;-63
2024/01/21 05:57:37;;;;;;;28.70;14.90;;;;;;;7.48;53.13;100725.20;108449;1251;60874;-67
2024/01/21 06:00:06;;;;;;;32.80;16.90;;;;;;;7.52;53.06;100730.73;108305;1253;60283;-67
2024/01/21 06:02:38;;;;;;;28.80;16.10;;;;;;;7.44;53.14;100732.42;108281;1251;73375;-67
2024/01/21 06:05:06;;;;;;;29.10;16.60;;;;;;;7.46;53.16;100736.77;108182;1251;69225;-67
2024/01/21 06:07:34;;;;;;;33.30;17.90;;;;;;;7.47;53.09;100740.94;108220;1251;72783;-67
2024/01/21 06:10:02;;;;;;;29.10;16.80;;;;;;;7.43;53.12;100744.50;108204;1253;59729;-67
2024/01/21 06:12:30;;;;;;;31.00;17.10;;;;;;;7.33;53.34;100749.00;108293;1251;60080;-67
2024/01/21 06:14:57;;;;;;;27.70;16.50;;;;;;;7.23;53.63;100751.59;108240;1251;74748;-68
2024/01/21 06:17:25;;;;;;;30.60;17.50;;;;;;;7.28;53.65;100758.15;108298;1251;68298;-67
2024/01/21 06:19:52;;;;;;;34.80;18.80;;;;;;;7.49;53.24;100760.30;108211;1254;71340;-66
2024/01/21 06:22:20;;;;;;;33.50;19.10;;;;;;;7.36;53.33;100768.52;107920;1253;60825;-67
2024/01/21 06:24:47;;;;;;;29.10;15.60;;;;;;;7.32;53.47;100769.27;107888;1253;60317;-66
2024/01/21 06:27:15;;;;;;;33.40;17.60;;;;;;;7.35;53.54;100774.30;107999;1253;73707;-66
2024/01/21 06:29:43;;;;;;;29.90;17.40;;;;;;;7.35;53.62;100778.31;107930;1260;68289;-66
2024/01/21 06:32:11;;;;;;;28.80;16.10;;;;;;;7.41;53.44;100783.48;107876;1257;71706;-66
2024/01/21 06:34:38;;;;;;;29.80;17.00;;;;;;;7.42;53.40;100786.45;107938;1256;60434;-67
2024/01/21 06:37:07;;;;;;;27.00;16.00;;;;;;;7.50;53.15;100787.02;107730;1257;60447;-66
2024/01/21 06:39:34;;;;;;;30.90;17.10;;;;;;;7.43;53.36;100791.30;107780;1256;74078;-67
2024/01/21 06:42:02;;;;;;;23.10;14.40;;;;;;;7.45;53.38;100798.63;107685;1257;69285;-67
2024/01/21 06:44:29;;;;;;;29.80;15.90;;;;;;;7.64;53.10;100803.77;107768;1256;71773;-67
2024/01/21 06:46:57;;;;;;;27.50;16.20;;;;;;;7.75;52.81;100810.95;107800;1261;60881;-67
2024/01/21 06:49:25;;;;;;;31.30;15.90;;;;;;;7.68;52.94;100813.17;107833;1256;59177;-67
2024/01/21 06:51:55;;;;;;;30.50;15.90;;;;;;;7.75;52.91;100817.08;107800;1256;72139;-67
2024/01/21 06:54:23;;;;;;;23.20;13.80;;;;;;;7.75;52.86;100820.39;107680;1257;69866;-67
2024/01/21 06:56:50;;;;;;;29.50;16.80;;;;;;;7.78;52.72;100827.70;107811;1256;70996;-67
2024/01/21 06:59:18;;;;;;;31.40;17.00;;;;;;;7.80;52.59;100835.55;107870;1256;60897;-66
2024/01/21 07:01:45;;;;;;;25.30;13.90;;;;;;;7.81;52.55;100840.94;107711;1256;60447;-66
2024/01/21 07:04:13;;;;;;;30.20;17.40;;;;;;;7.84;52.69;100848.60;107696;1256;73956;-67
2024/01/21 07:06:41;;;;;;;28.50;16.10;;;;;;;7.94;52.54;100850.55;107716;1257;68377;-67
2024/01/21 07:09:10;;;;;;;31.40;16.70;;;;;;;7.92;52.38;100855.99;107694;1259;71087;-66
2024/01/21 07:11:41;;;;;;;30.10;16.70;;;;;;;7.98;52.29;100861.14;107600;1257;60288;-67
2024/01/21 07:14:09;;;;;;;31.30;16.70;;;;;;;7.97;52.25;100868.16;107652;1257;60027;-67
2024/01/21 07:16:37;;;;;;;28.80;16.70;;;;;;;7.85;52.75;100874.45;107567;1257;73994;-66
2024/01/21 07:19:04;;;;;;;25.70;15.20;;;;;;;7.90;52.46;100878.23;107636;1258;70147;-67
2024/01/21 07:21:32;;;;;;;28.10;15.40;;;;;;;7.88;52.51;100885.61;107597;1259;72751;-67
2024/01/21 07:24:00;;;;;;;26.60;15.50;;;;;;;7.89;52.56;100896.42;107537;1263;60321;-67
2024/01/21 07:26:28;;;;;;;29.10;16.50;;;;;;;7.97;52.42;100895.27;107673;1257;61622;-67
2024/01/21 07:28:55;;;;;;;21.80;13.80;;;;;;;8.00;52.38;100896.98;107573;1257;73852;-66
2024/01/21 07:31:24;;;;;;;30.80;15.40;;;;;;;8.02;52.26;100897.30;107586;1256;70193;-67
2024/01/21 07:33:52;;;;;;;28.40;15.40;;;;;;;8.03;52.27;100903.92;107732;1256;71502;-66
2024/01/21 07:36:19;;;;;;;24.70;14.90;;;;;;;8.08;52.22;100905.95;107831;1262;60689;-67
2024/01/21 07:38:47;;;;;;;25.90;14.00;;;;;;;8.14;52.05;100918.45;107674;1256;60482;-66
2024/01/21 07:41:14;;;;;;;26.30;15.80;;;;;;;8.19;51.97;100919.27;107745;1256;72647;-66
2024/01/21 07:43:42;;;;;;;28.10;16.50;;;;;;;8.18;51.76;100921.56;107783;1256;70143;-66
2024/01/21 07:46:09;;;;;;;22.60;13.00;;;;;;;8.17;51.91;100925.25;107701;1256;71466;-66
2024/01/21 07:48:37;;;;;;;28.80;15.10;;;;;;;8.08;52.28;100925.02;107885;1257;60296;-67
2024/01/21 07:51:05;;;;;;;26.90;14.90;;;;;;;8.14;52.13;100930.35;107709;1256;60303;-66
2024/01/21 07:53:32;;;;;;;23.40;13.80;;;;;;;8.13;52.32;100937.72;107693;1256;71601;-67
2024/01/21 07:56:00;;;;;;;29.00;16.30;;;;;;;8.17;52.23;100943.95;107734;1257;70141;-67
2024/01/21 07:58:28;;;;;;;29.00;14.90;;;;;;;8.18;51.97;100948.66;107724;1256;71400;-66
2024/01/21 08:00:55;;;;;;;22.10;14.40;;;;;;;8.07;52.37;100953.72;107705;1257;63622;-66
2024/01/21 08:03:23;;;;;;;26.40;14.50;;;;;;;8.10;52.20;100958.92;107777;1256;60254;-66
2024/01/21 08:05:52;;;;;;;21.70;12.80;;;;;;;8.05;52.57;100963.19;107734;1256;72262;-66
2024/01/21 08:08:20;;;;;;;26.90;15.80;;;;;;;8.07;52.31;100963.15;107693;1256;69433;-67
2024/01/21 08:10:47;;;;;;;25.40;15.50;;;;;;;8.11;52.21;100967.30;107717;1256;71552;-66
2024/01/21 08:13:15;;;;;;;23.20;13.10;;;;;;;8.09;52.17;100972.39;107831;1256;60968;-66
2024/01/21 08:15:43;;;;;;;23.20;13.70;;;;;;;7.86;53.10;100972.88;107731;1256;60317;-67
2024/01/21 08:18:12;;;;;;;23.20;13.00;;;;;;;7.90;52.87;100977.54;107707;1256;72424;-66
2024/01/21 08:20:40;;;;;;;20.20;12.60;;;;;;;7.97;53.18;100985.15;107863;1256;71306;-66
2024/01/21 08:23:08;;;;;;;20.80;12.80;;;;;;;8.05;52.91;100992.56;107741;1256;72903;-67
2024/01/21 08:25:35;;;;;;;27.80;14.30;;;;;;;8.25;52.46;100999.65;107790;1260;60572;-67
2024/01/21 08:28:04;;;;;;;24.80;14.70;;;;;;;8.34;52.47;101011.77;107722;1256;60306;-67
2024/01/21 08:30:31;;;;;;;20.70;12.50;;;;;;;8.43;52.47;101016.41;107847;1256;73278;-67
2024/01/21 08:32:59;;;;;;;22.70;12.70;;;;;;;8.43;52.14;101021.83;107750;1256;70092;-67
2024/01/21 08:35:27;;;;;;;20.10;12.70;;;;;;;8.42;52.11;101025.00;107845;1256;71084;-67
2024/01/21 08:37:54;;;;;;;21.00;12.40;;;;;;;8.49;51.92;101029.98;107884;1256;60435;-66
2024/01/21 08:40:21;;;;;;;19.70;11.70;;;;;;;8.53;51.53;101033.95;107759;1256;60316;-66
2024/01/21 08:42:50;;;;;;;22.30;13.20;;;;;;;8.51;51.50;101041.51;107700;1256;73811;-67
2024/01/21 08:45:18;;;;;;;15.70;10.80;;;;;;;8.72;51.30;101045.75;107914;1256;70932;-67
2024/01/21 08:47:46;;;;;;;17.10;11.50;;;;;;;8.65;51.37;101049.35;107772;1256;70718;-66
2024/01/21 08:50:14;;;;;;;20.40;11.80;;;;;;;8.63;51.26;101053.92;107743;1256;60421;-66
2024/01/21 08:52:41;;;;;;;20.40;11.90;;;;;;;8.62;51.46;101060.25;107731;1258;60919;-66
2024/01/21 08:55:09;;;;;;;19.30;12.60;;;;;;;8.51;51.49;101064.77;107723;1256;73950;-66
2024/01/21 08:57:36;;;;;;;20.20;11.80;;;;;;;8.42;51.66;101072.41;107740;1256;68572;-66
2024/01/21 09:00:05;;;;;;;19.40;11.90;;;;;;;8.57;51.53;101069.77;107706;1256;70814;-67
2024/01/21 09:02:33;;;;;;;20.10;11.40;;;;;;;8.67;51.40;101068.76;107817;1257;60811;-67
2024/01/21 09:05:00;;;;;;;16.30;11.30;;;;;;;8.74;51.57;101068.65;107854;1256;60051;-67
2024/01/21 09:07:28;;;;;;;19.90;12.50;;;;;;;8.67;51.87;101066.48;107915;1256;73141;-66
2024/01/21 09:09:56;;;;;;;18.00;11.10;;;;;;;8.65;51.62;101068.61;108016;1256;70296;-66
2024/01/21 09:12:24;;;;;;;18.60;12.20;;;;;;;8.70;51.59;101076.95;107727;1257;72775;-66
2024/01/21 09:14:51;;;;;;;19.40;11.10;;;;;;;8.78;51.48;101078.05;107779;1256;60880;-66
2024/01/21 09:17:19;;;;;;;18.20;11.30;;;;;;;8.82;51.28;101082.89;107780;1256;60194;-66
2024/01/21 09:19:47;;;;;;;16.40;11.30;;;;;;;8.75;51.46;101084.23;107796;1256;72628;-67
2024/01/21 09:22:14;;;;;;;18.70;11.40;;;;;;;8.49;51.91;101087.90;107775;1256;69016;-67
2024/01/21 09:24:42;;;;;;;17.90;11.20;;;;;;;8.49;51.82;101094.91;107848;1256;71479;-66
2024/01/21 09:27:10;;;;;;;18.30;11.50;;;;;;;8.47;51.79;101100.70;107698;1256;61091;-67
2024/01/21 09:29:37;;;;;;;18.20;12.00;;;;;;;8.17;52.38;101103.65;107820;1256;60392;-67
2024/01/21 09:32:05;;;;;;;20.50;11.90;;;;;;;8.06;52.81;101108.17;107839;1256;73823;-67
2024/01/21 09:34:35;;;;;;;21.10;12.80;;;;;;;8.01;52.34;101114.16;107754;1257;68640;-67
2024/01/21 09:37:03;;;;;;;18.30;11.40;;;;;;;7.88;52.74;101117.44;107710;1256;72509;-68
2024/01/21 09:39:30;;;;;;;22.00;13.20;;;;;;;7.82;52.79;101122.75;107695;1259;61181;-67
2024/01/21 09:41:58;;;;;;;19.10;11.60;;;;;;;7.81;52.72;101130.63;107826;1256;60291;-67
2024/01/21 09:44:26;;;;;;;20.40;12.50;;;;;;;7.91;52.44;101134.71;107803;1257;73808;-67
2024/01/21 09:46:58;;;;;;;18.30;11.50;;;;;;;8.03;52.33;101142.13;107773;1256;70331;-66
2024/01/21 09:49:26;;;;;;;26.80;15.20;;;;;;;8.06;51.87;101146.29;107724;1256;72639;-66
2024/01/21 09:51:54;;;;;;;36.30;16.90;;;;;;;7.92;51.64;101156.74;108000;1256;60870;-66
2024/01/21 09:54:22;;;;;;;36.80;18.20;;;;;;;7.88;51.24;101163.60;107821;1256;60387;-66
2024/01/21 09:56:50;;;;;;;37.30;18.70;;;;;;;7.94;50.81;101173.16;107847;1256;72655;-67
2024/01/21 09:59:17;;;;;;;41.20;20.70;;;;;;;7.88;50.56;101176.89;107847;1256;70077;-65
2024/01/21 10:01:45;;;;;;;33.30;18.90;;;;;;;7.81;50.39;101182.36;107836;1256;72651;-67
2024/01/21 10:04:14;;;;;;;37.20;19.70;;;;;;;7.90;50.14;101187.02;107822;1256;60595;-67
2024/01/21 10:06:42;;;;;;;37.00;19.00;;;;;;;7.70;50.10;101189.80;107863;1256;60949;-67
2024/01/21 10:09:13;;;;;;;35.20;18.00;;;;;;;7.52;50.20;101192.04;107725;1256;73098;-66
2024/01/21 10:11:41;;;;;;;36.80;19.80;;;;;;;7.41;50.57;101199.81;107793;1260;69591;-67
2024/01/21 10:14:10;;;;;;;39.30;19.70;;;;;;;7.47;50.24;101205.89;107573;1256;72716;-67
2024/01/21 10:16:42;;;;;;;34.90;19.30;;;;;;;7.29;50.65;101209.48;107737;1256;60842;-67
2024/01/21 10:19:16;;;;;;;40.00;21.30;;;;;;;6.99;51.01;101217.70;107773;1256;60339;-67
2024/01/21 10:21:44;;;;;;;35.60;18.70;;;;;;;6.97;51.11;101227.84;107708;1256;72985;-67
2024/01/21 10:24:11;;;;;;;39.40;18.50;;;;;;;7.13;50.90;101235.45;107664;1256;69561;-67
2024/01/21 10:26:42;;;;;;;30.20;16.40;;;;;;;7.06;50.63;101248.23;107726;1256;72763;-67
2024/01/21 10:29:10;;;;;;;30.10;16.10;;;;;;;7.05;50.87;101262.89;107587;1257;60255;-68
2024/01/21 10:31:38;;;;;;;31.40;16.10;;;;;;;7.06;51.19;101270.58;107719;1256;60300;-68
2024/01/21 10:34:05;;;;;;;31.50;16.30;;;;;;;7.08;50.79;101274.94;107765;1256;74015;-67
2024/01/21 10:36:33;;;;;;;29.20;15.00;;;;;;;6.98;50.46;101279.34;107651;1256;68940;-68
2024/01/21 10:39:02;;;;;;;30.40;15.10;;;;;;;6.94;50.34;101286.33;107656;1259;72742;-68
2024/01/21 10:41:31;;;;;;;28.70;15.30;;;;;;;6.82;50.53;101289.34;107772;1256;60495;-68
2024/01/21 10:44:00;;;;;;;35.90;18.40;;;;;;;6.81;50.65;101298.95;107743;1256;59253;-67
2024/01/21 10:46:27;;;;;;;30.50;16.50;;;;;;;6.66;50.54;101301.27;107656;1256;73915;-66
2024/01/21 10:48:57;;;;;;;33.10;16.50;;;;;;;6.49;51.07;101308.44;107484;1257;70119;-66
2024/01/21 10:51:25;;;;;;;34.70;17.30;;;;;;;6.61;50.65;101318.02;107686;1256;72691;-67
2024/01/21 10:53:53;;;;;;;30.30;15.70;;;;;;;6.50;50.39;101322.58;107725;1256;60178;-67
2024/01/21 10:56:20;;;;;;;36.40;17.00;;;;;;;6.57;50.39;101329.02;107731;1256;60040;-67
2024/01/21 10:58:49;;;;;;;32.00;16.50;;;;;;;6.70;50.00;101332.14;107654;1256;73898;-67
2024/01/21 11:01:17;;;;;;;29.50;16.00;;;;;;;6.60;50.25;101341.23;107704;1262;70158;-66
2024/01/21 11:03:44;;;;;;;34.70;18.60;;;;;;;6.45;50.45;101345.77;107706;1259;71060;-66
2024/01/21 11:06:12;;;;;;;31.50;17.20;;;;;;;6.42;49.94;101356.08;107620;1256;60479;-66
2024/01/21 11:08:41;;;;;;;34.30;17.40;;;;;;;6.29;49.84;101359.73;107629;1259;60518;-67
2024/01/21 11:11:09;;;;;;;34.60;17.60;;;;;;;6.27;49.78;101360.09;107683;1256;72972;-67
2024/01/21 11:13:49;;;;;;;33.80;17.20;;;;;;;6.10;50.14;101365.83;107744;1257;70887;-66